createdAt,value
2022-10-22T00:00:57.201Z,2.60
2022-10-22T00:03:25.093Z,3.23
2022-10-22T00:05:52.926Z,2.80
2022-10-22T00:08:20.745Z,5.43
2022-10-22T00:10:48.622Z,5.83
2022-10-22T00:13:16.932Z,2.30
2022-10-22T00:15:46.099Z,1.83
2022-10-22T00:18:14.187Z,1.97
2022-10-22T00:20:42.045Z,2.30
2022-10-22T00:23:09.921Z,2.80
2022-10-22T00:25:37.732Z,4.37
2022-10-22T00:28:05.754Z,2.57
2022-10-22T00:30:33.659Z,5.23
2022-10-22T00:33:02.860Z,2.57
2022-10-22T00:35:30.739Z,1.87
2022-10-22T00:37:58.562Z,3.40
2022-10-22T00:40:26.678Z,7.50
2022-10-22T00:42:54.587Z,3.80
2022-10-22T00:45:25.506Z,3.17
2022-10-22T00:47:58.220Z,3.30
2022-10-22T00:50:32.387Z,3.03
2022-10-22T00:53:01.176Z,3.97
2022-10-22T00:55:30.627Z,2.40
2022-10-22T00:57:59.533Z,1.20
2022-10-22T01:00:27.673Z,1.87
2022-10-22T01:02:56.927Z,2.20
2022-10-22T01:05:28.398Z,1.97
2022-10-22T01:07:56.432Z,1.60
2022-10-22T01:10:43.996Z,2.50
2022-10-22T01:13:22.851Z,1.50
2022-10-22T01:15:57.664Z,2.97
2022-10-22T01:18:33.847Z,1.97
2022-10-22T01:21:11.123Z,4.90
2022-10-22T01:24:09.100Z,2.90
2022-10-22T01:26:50.219Z,2.17
2022-10-22T01:29:26.899Z,2.00
2022-10-22T01:32:00.849Z,3.43
2022-10-22T01:34:31.037Z,2.03
2022-10-22T01:37:00.275Z,1.60
2022-10-22T01:39:30.397Z,1.70
2022-10-22T01:41:58.734Z,2.20
2022-10-22T01:44:30.466Z,5.60
2022-10-22T01:47:08.549Z,5.90
2022-10-22T01:50:00.431Z,3.47
2022-10-22T01:52:38.883Z,7.40
2022-10-22T01:55:15.706Z,7.00
2022-10-22T01:57:50.983Z,5.90
2022-10-22T02:00:20.890Z,8.10
2022-10-22T02:02:56.510Z,6.90
2022-10-22T02:05:29.768Z,7.63
2022-10-22T02:08:07.165Z,9.10
2022-10-22T02:10:37.651Z,8.83
2022-10-22T02:13:09.339Z,8.53
2022-10-22T02:15:41.013Z,7.60
2022-10-22T02:18:10.669Z,9.77
2022-10-22T02:20:41.991Z,7.83
2022-10-22T02:23:11.234Z,10.93
2022-10-22T02:25:43.535Z,9.43
2022-10-22T02:28:17.785Z,8.57
2022-10-22T02:30:53.915Z,8.73
2022-10-22T02:33:26.495Z,9.47
2022-10-22T02:35:55.511Z,10.20
2022-10-22T02:38:24.623Z,8.60
2022-10-22T02:40:52.684Z,9.93
2022-10-22T02:43:20.894Z,7.70
2022-10-22T02:45:50.118Z,9.37
2022-10-22T02:48:18.125Z,10.73
2022-10-22T02:50:46.030Z,9.10
2022-10-22T02:53:13.913Z,8.00
2022-10-22T02:55:41.758Z,11.03
2022-10-22T02:58:09.716Z,11.10
2022-10-22T03:00:37.607Z,9.20
2022-10-22T03:03:06.907Z,8.53
2022-10-22T03:05:34.740Z,9.40
2022-10-22T03:08:02.544Z,9.47
2022-10-22T03:10:30.398Z,10.60
2022-10-22T03:12:58.226Z,12.17
2022-10-22T03:17:58.783Z,9.70
2022-10-22T03:20:28.177Z,7.70
2022-10-22T03:22:57.326Z,9.10
2022-10-22T03:25:27.861Z,9.03
2022-10-22T03:27:57.946Z,7.63
2022-10-22T03:30:25.747Z,6.57
2022-10-22T03:32:53.585Z,7.00
2022-10-22T03:35:21.739Z,5.60
2022-10-22T03:37:51.330Z,5.30
2022-10-22T03:40:19.884Z,9.13
2022-10-22T03:42:48.059Z,6.10
2022-10-22T03:45:15.913Z,5.47
2022-10-22T03:47:43.817Z,5.60
2022-10-22T03:50:12.013Z,6.10
2022-10-22T03:52:40.948Z,4.30
2022-10-22T03:55:10.768Z,5.60
2022-10-22T03:57:38.772Z,5.60
2022-10-22T04:00:08.618Z,5.67
2022-10-22T04:02:36.462Z,8.87
2022-10-22T04:05:04.421Z,8.33
2022-10-22T04:07:32.325Z,5.60
2022-10-22T04:10:00.173Z,4.83
2022-10-22T04:12:29.403Z,6.40
2022-10-22T04:14:57.226Z,5.63
2022-10-22T04:17:25.111Z,8.13
2022-10-22T04:19:52.944Z,6.30
2022-10-22T04:22:20.755Z,11.70
2022-10-22T04:24:48.563Z,7.57
2022-10-22T04:27:16.376Z,7.53
2022-10-22T04:29:45.581Z,6.73
2022-10-22T04:32:13.425Z,6.70
2022-10-22T04:34:41.215Z,8.17
2022-10-22T04:37:09.020Z,6.60
2022-10-22T04:39:36.861Z,6.10
2022-10-22T04:42:05.237Z,6.17
2022-10-22T04:44:33.240Z,7.53
2022-10-22T04:47:02.442Z,6.30
2022-10-22T04:49:30.328Z,6.40
2022-10-22T04:51:58.174Z,10.63
2022-10-22T04:54:29.045Z,8.60
2022-10-22T04:57:00.034Z,10.70
2022-10-22T04:59:27.848Z,8.40
2022-10-22T05:01:55.640Z,10.60
2022-10-22T05:04:24.785Z,9.20
2022-10-22T05:06:52.660Z,7.40
2022-10-22T05:09:22.177Z,10.73
2022-10-22T05:11:51.901Z,9.03
2022-10-22T05:14:22.597Z,9.37
2022-10-22T05:16:50.888Z,7.90
2022-10-22T05:19:21.323Z,10.90
2022-10-22T05:21:50.752Z,7.60
2022-10-22T05:24:18.891Z,17.80
2022-10-22T05:26:46.759Z,8.70
2022-10-22T05:29:14.915Z,7.73
2022-10-22T05:31:42.744Z,7.23
2022-10-22T05:34:10.582Z,6.57
2022-10-22T05:36:38.513Z,7.17
2022-10-22T05:39:07.828Z,10.10
2022-10-22T05:41:36.612Z,7.83
2022-10-22T05:44:05.472Z,6.23
2022-10-22T05:46:36.465Z,6.37
2022-10-22T05:49:06.531Z,7.63
2022-10-22T05:51:36.471Z,10.13
2022-10-22T05:54:08.361Z,9.37
2022-10-22T05:56:36.720Z,4.43
2022-10-22T05:59:05.171Z,3.13
2022-10-22T06:01:35.262Z,4.17
2022-10-22T06:04:05.653Z,5.80
2022-10-22T06:06:35.806Z,7.07
2022-10-22T06:09:08.762Z,7.97
2022-10-22T06:11:36.879Z,7.00
2022-10-22T06:14:05.418Z,4.37
2022-10-22T06:16:33.925Z,5.77
2022-10-22T06:19:02.828Z,5.97
2022-10-22T06:21:31.484Z,5.23
2022-10-22T06:24:00.783Z,5.50
2022-10-22T06:26:30.707Z,4.67
2022-10-22T06:28:59.089Z,7.57
2022-10-22T06:31:28.268Z,5.27
2022-10-22T06:33:57.423Z,5.77
2022-10-22T06:36:26.076Z,5.50
2022-10-22T06:38:54.915Z,5.43
2022-10-22T06:41:27.080Z,4.87
2022-10-22T06:43:59.982Z,5.83
2022-10-22T06:46:27.911Z,8.87
2022-10-22T06:48:57.855Z,7.73
2022-10-22T06:51:27.054Z,4.40
2022-10-22T06:53:55.783Z,4.40
2022-10-22T06:56:25.187Z,6.87
2022-10-22T06:58:54.897Z,4.17
2022-10-22T07:01:26.230Z,12.10
2022-10-22T07:03:55.088Z,6.33
2022-10-22T07:06:25.067Z,7.53
2022-10-22T07:08:54.620Z,4.60
2022-10-22T07:11:24.314Z,7.03
2022-10-22T07:13:52.745Z,7.53
2022-10-22T07:16:20.714Z,5.90
2022-10-22T07:18:50.090Z,5.57
2022-10-22T07:21:21.908Z,10.30
2022-10-22T07:23:50.059Z,8.30
2022-10-22T07:26:20.300Z,7.20
2022-10-22T07:28:49.282Z,8.90
2022-10-22T07:31:18.796Z,5.93
2022-10-22T07:33:47.026Z,4.80
2022-10-22T07:36:18.446Z,9.00
2022-10-22T07:38:46.776Z,6.43
2022-10-22T07:41:15.408Z,5.87
2022-10-22T07:43:43.417Z,5.57
2022-10-22T07:46:11.276Z,3.50
2022-10-22T07:48:40.013Z,4.87
2022-10-22T07:51:08.234Z,9.67
2022-10-22T07:53:37.526Z,4.07
2022-10-22T07:56:05.690Z,3.90
2022-10-22T07:58:33.527Z,5.43
2022-10-22T08:01:02.752Z,5.10
2022-10-22T08:03:31.087Z,4.90
2022-10-22T08:05:59.283Z,6.60
2022-10-22T08:08:29.863Z,5.60
2022-10-22T08:11:01.425Z,4.90
2022-10-22T08:13:31.024Z,3.47
2022-10-22T08:15:59.586Z,3.23
2022-10-22T08:18:28.246Z,9.00
2022-10-22T08:20:56.127Z,5.37
2022-10-22T08:23:27.467Z,5.67
2022-10-22T08:25:57.008Z,7.17
2022-10-22T08:28:28.480Z,5.93
2022-10-22T08:30:57.016Z,4.13
2022-10-22T08:33:24.863Z,8.13
2022-10-22T08:35:53.685Z,5.33
2022-10-22T08:38:22.102Z,7.43
2022-10-22T08:40:52.796Z,3.10
2022-10-22T08:43:46.599Z,4.30
2022-10-22T08:46:32.463Z,4.93
2022-10-22T08:49:03.721Z,4.23
2022-10-22T08:51:35.387Z,7.07
2022-10-22T08:54:16.244Z,4.50
2022-10-22T08:56:48.802Z,3.43
2022-10-22T08:59:24.159Z,2.47
2022-10-22T09:01:54.815Z,3.03
2022-10-22T09:04:27.535Z,3.20
2022-10-22T09:06:58.479Z,5.20
2022-10-22T09:09:30.718Z,3.83
2022-10-22T09:12:00.122Z,2.87
2022-10-22T09:14:30.890Z,3.17
2022-10-22T09:17:17.096Z,5.37
2022-10-22T09:19:57.320Z,4.53
2022-10-22T09:25:19.989Z,3.80
2022-10-22T09:27:48.741Z,4.30
2022-10-22T09:30:20.910Z,7.83
2022-10-22T09:32:51.648Z,4.03
2022-10-22T09:35:25.223Z,4.53
2022-10-22T09:37:55.221Z,7.13
2022-10-22T09:40:24.123Z,6.73
2022-10-22T09:42:52.045Z,5.20
2022-10-22T09:45:24.585Z,3.90
2022-10-22T09:48:09.940Z,3.33
2022-10-22T09:50:43.907Z,3.43
2022-10-22T09:53:18.708Z,4.53
2022-10-22T09:55:52.083Z,4.53
2022-10-22T09:58:20.543Z,4.57
2022-10-22T10:00:54.478Z,3.30
2022-10-22T10:03:24.842Z,3.80
2022-10-22T10:05:55.135Z,4.33
2022-10-22T10:08:23.851Z,2.53
2022-10-22T10:10:57.475Z,2.10
2022-10-22T10:13:44.657Z,3.90
2022-10-22T10:16:27.525Z,4.40
2022-10-22T10:19:09.016Z,2.27
2022-10-22T10:21:46.989Z,5.67
2022-10-22T10:24:23.546Z,3.27
2022-10-22T10:26:58.156Z,3.60
2022-10-22T10:32:50.148Z,2.27
2022-10-22T10:35:24.790Z,3.83
2022-10-22T10:38:05.233Z,3.60
2022-10-22T10:40:38.747Z,3.40
2022-10-22T10:43:11.691Z,3.93
2022-10-22T10:45:55.507Z,6.63
2022-10-22T10:48:43.929Z,6.17
2022-10-22T10:51:24.935Z,4.27
2022-10-22T10:54:08.768Z,3.97
2022-10-22T10:56:41.183Z,3.57
2022-10-22T10:59:17.462Z,3.90
2022-10-22T11:01:57.116Z,12.93
2022-10-22T11:04:59.122Z,4.50
2022-10-22T11:07:34.766Z,3.27
2022-10-22T11:10:07.772Z,2.53
2022-10-22T11:12:40.078Z,5.73
2022-10-22T11:15:13.441Z,3.60
2022-10-22T11:17:45.345Z,3.90
2022-10-22T11:20:20.712Z,3.63
2022-10-22T11:23:17.595Z,9.13
2022-10-22T11:25:45.651Z,4.50
2022-10-22T11:28:17.697Z,2.30
2022-10-22T11:30:50.561Z,9.50
2022-10-22T11:33:23.169Z,6.03
2022-10-22T11:35:53.995Z,3.67
2022-10-22T11:38:26.186Z,4.30
2022-10-22T11:40:57.943Z,3.10
2022-10-22T11:43:31.795Z,2.90
2022-10-22T11:46:09.494Z,2.10
2022-10-22T11:48:39.322Z,2.87
2022-10-22T11:51:31.023Z,4.30
2022-10-22T11:54:02.279Z,6.43
2022-10-22T11:56:39.228Z,3.13
2022-10-22T11:59:38.664Z,2.80
2022-10-22T12:02:32.953Z,4.03
2022-10-22T12:05:33.788Z,3.67
2022-10-22T12:08:15.895Z,6.80
2022-10-22T12:11:06.758Z,4.00
2022-10-22T12:13:54.155Z,3.80
2022-10-22T12:16:32.340Z,3.33
2022-10-22T12:19:17.935Z,3.70
2022-10-22T12:21:49.523Z,3.20
2022-10-22T12:24:21.433Z,5.20
2022-10-22T12:26:52.426Z,3.70
2022-10-22T12:29:25.530Z,4.93
2022-10-22T12:31:53.910Z,2.33
2022-10-22T12:34:24.333Z,3.97
2022-10-22T12:36:54.466Z,4.93
2022-10-22T12:39:27.208Z,5.53
2022-10-22T12:41:55.837Z,7.93
2022-10-22T12:44:23.680Z,3.73
2022-10-22T12:46:55.969Z,2.67
2022-10-22T12:49:34.395Z,3.60
2022-10-22T12:52:03.995Z,4.50
2022-10-22T12:54:35.342Z,4.57
2022-10-22T12:57:03.522Z,5.87
2022-10-22T12:59:35.523Z,3.73
2022-10-22T13:02:09.077Z,1.93
2022-10-22T13:04:39.536Z,4.20
2022-10-22T13:07:19.933Z,2.60
2022-10-22T13:09:59.896Z,4.87
2022-10-22T13:12:35.451Z,2.50
2022-10-22T13:15:22.047Z,3.83
2022-10-22T13:17:50.625Z,3.30
2022-10-22T13:20:23.235Z,1.80
2022-10-22T13:22:58.030Z,2.20
2022-10-22T13:25:29.454Z,2.33
2022-10-22T13:28:00.111Z,2.67
2022-10-22T13:30:29.818Z,2.80
2022-10-22T13:32:59.142Z,3.20
2022-10-22T13:35:29.637Z,1.70
2022-10-22T13:37:57.448Z,3.20
2022-10-22T13:40:25.332Z,1.70
2022-10-22T13:42:54.601Z,2.83
2022-10-22T13:45:22.525Z,2.00
2022-10-22T13:47:53.160Z,3.27
2022-10-22T13:50:22.525Z,4.10
2022-10-22T13:52:53.572Z,1.70
2022-10-22T13:55:25.587Z,2.80
2022-10-22T13:57:57.397Z,2.83
2022-10-22T14:00:26.269Z,3.93
2022-10-22T14:02:58.114Z,5.27
2022-10-22T14:05:26.498Z,2.20
2022-10-22T14:07:54.616Z,3.00
2022-10-22T14:10:24.357Z,2.50
2022-10-22T14:12:54.076Z,3.40
2022-10-22T14:15:24.698Z,2.30
2022-10-22T14:17:56.502Z,2.93
2022-10-22T14:20:27.043Z,4.60
2022-10-22T14:22:55.635Z,3.00
2022-10-22T14:25:25.292Z,2.23
2022-10-22T14:27:54.745Z,2.57
2022-10-22T14:30:24.399Z,2.07
2022-10-22T14:32:52.396Z,3.60
2022-10-22T14:35:22.785Z,4.60
2022-10-22T14:37:50.692Z,2.60
2022-10-22T14:40:20.825Z,2.40
2022-10-22T14:42:49.873Z,2.70
2022-10-22T14:45:21.970Z,2.30
2022-10-22T14:47:50.287Z,2.50
2022-10-22T14:50:18.597Z,4.73
2022-10-22T14:52:46.521Z,2.27
2022-10-22T14:55:15.944Z,3.17
2022-10-22T14:57:44.557Z,4.73
2022-10-22T15:00:15.156Z,2.30
2022-10-22T15:02:44.780Z,3.90
2022-10-22T15:05:12.791Z,2.20
2022-10-22T15:07:41.181Z,2.43
2022-10-22T15:10:10.463Z,3.37
2022-10-22T15:12:38.320Z,13.80
2022-10-22T15:15:07.557Z,19.90
2022-10-22T15:17:35.452Z,19.43
2022-10-22T15:20:05.431Z,21.80
2022-10-22T15:22:35.247Z,17.77
2022-10-22T15:25:04.653Z,14.13
2022-10-22T15:27:32.524Z,4.10
2022-10-22T15:30:00.410Z,5.00
2022-10-22T15:32:29.206Z,4.37
2022-10-22T15:34:57.376Z,4.23
2022-10-22T15:37:26.569Z,2.73
2022-10-22T15:39:54.433Z,6.17
2022-10-22T15:42:23.254Z,8.20
2022-10-22T15:44:57.723Z,3.27
2022-10-22T15:47:28.455Z,3.03
2022-10-22T15:49:56.587Z,4.83
2022-10-22T15:52:25.863Z,4.30
2022-10-22T15:54:53.749Z,4.40
2022-10-22T15:57:21.564Z,4.30
2022-10-22T15:59:50.062Z,4.60
2022-10-22T16:02:18.008Z,3.57
2022-10-22T16:04:45.878Z,4.97
2022-10-22T16:07:13.725Z,3.40
2022-10-22T16:09:42.882Z,4.83
2022-10-22T16:12:12.189Z,6.90
2022-10-22T16:14:42.372Z,5.20
2022-10-22T16:17:10.217Z,5.40
2022-10-22T16:19:38.040Z,4.27
2022-10-22T16:22:05.884Z,3.67
2022-10-22T16:24:33.680Z,6.53
2022-10-22T16:27:03.416Z,3.73
2022-10-22T16:29:31.252Z,5.67
2022-10-22T16:31:59.099Z,3.70
2022-10-22T16:34:27.582Z,3.80
2022-10-22T16:36:56.823Z,8.37
2022-10-22T16:39:24.973Z,5.10
2022-10-22T16:41:52.792Z,9.13
2022-10-22T16:44:21.987Z,3.90
2022-10-22T16:46:49.784Z,4.20
2022-10-22T16:49:17.635Z,5.57
2022-10-22T16:51:45.533Z,7.67
2022-10-22T16:54:15.557Z,4.47
2022-10-22T16:56:43.374Z,3.30
2022-10-22T16:59:11.214Z,6.00
2022-10-22T17:01:41.346Z,5.17
2022-10-22T17:04:09.879Z,6.50
2022-10-22T17:06:37.970Z,5.07
2022-10-22T17:09:06.139Z,3.83
2022-10-22T17:11:36.357Z,5.23
2022-10-22T17:14:06.162Z,9.07
2022-10-22T17:16:34.111Z,7.50
2022-10-22T17:19:04.820Z,3.70
2022-10-22T17:21:33.808Z,2.57
2022-10-22T17:24:01.638Z,7.00
2022-10-22T17:26:30.409Z,3.83
2022-10-22T17:28:58.691Z,7.87
2022-10-22T17:31:28.627Z,6.23
2022-10-22T17:33:57.643Z,8.40
2022-10-22T17:36:31.798Z,4.00
2022-10-22T17:39:06.637Z,3.70
2022-10-22T17:41:36.097Z,7.17
2022-10-22T17:44:05.873Z,3.73
2022-10-22T17:46:34.129Z,4.43
2022-10-22T17:49:04.867Z,3.20
2022-10-22T17:51:34.111Z,5.00
2022-10-22T17:54:03.559Z,5.20
2022-10-22T17:56:34.072Z,7.27
2022-10-22T17:59:02.937Z,4.50
2022-10-22T18:01:32.581Z,6.63
2022-10-22T18:04:02.076Z,4.50
2022-10-22T18:06:30.100Z,5.43
2022-10-22T18:08:59.654Z,8.20
2022-10-22T18:11:28.741Z,7.37
2022-10-22T18:13:57.620Z,8.27
2022-10-22T18:16:26.461Z,7.83
2022-10-22T18:18:56.771Z,9.60
2022-10-22T18:21:26.448Z,6.57
2022-10-22T18:23:54.399Z,8.30
2022-10-22T18:26:26.704Z,7.23
2022-10-22T18:28:55.185Z,8.53
2022-10-22T18:31:24.897Z,13.13
2022-10-22T18:36:25.442Z,10.40
2022-10-22T18:38:54.660Z,5.07
2022-10-22T18:41:24.213Z,7.73
2022-10-22T18:43:52.744Z,5.23
2022-10-22T18:46:20.652Z,7.53
2022-10-22T18:48:48.972Z,12.00
2022-10-22T18:51:16.903Z,10.80
2022-10-22T18:53:58.738Z,9.50
2022-10-22T18:56:34.085Z,9.57
2022-10-22T18:59:01.892Z,7.07
2022-10-22T19:01:30.385Z,4.23
2022-10-22T19:03:58.417Z,6.63
2022-10-22T19:06:30.514Z,4.63
2022-10-22T19:09:00.149Z,7.43
2022-10-22T19:11:28.453Z,6.80
2022-10-22T19:13:57.860Z,6.53
2022-10-22T19:16:26.785Z,10.47
2022-10-22T19:19:00.040Z,5.50
2022-10-22T19:21:28.329Z,7.13
2022-10-22T19:23:56.873Z,6.43
2022-10-22T19:26:26.382Z,13.33
2022-10-22T19:28:54.599Z,9.97
2022-10-22T19:31:25.260Z,5.67
2022-10-22T19:33:54.537Z,8.13
2022-10-22T19:36:24.373Z,4.00
2022-10-22T19:38:52.892Z,6.93
2022-10-22T19:41:22.385Z,5.83
2022-10-22T19:43:51.852Z,5.73
2022-10-22T19:46:21.030Z,5.67
2022-10-22T19:48:52.215Z,8.57
2022-10-22T19:51:21.811Z,3.30
2022-10-22T19:53:50.462Z,5.40
2022-10-22T19:56:21.677Z,7.23
2022-10-22T19:58:49.570Z,5.27
2022-10-22T20:01:18.826Z,10.10
2022-10-22T20:03:47.024Z,6.67
2022-10-22T20:06:18.464Z,9.97
2022-10-22T20:08:47.448Z,7.80
2022-10-22T20:11:19.648Z,8.17
2022-10-22T20:13:51.379Z,5.87
2022-10-22T20:16:23.780Z,5.77
2022-10-22T20:18:54.267Z,3.93
2022-10-22T20:21:23.450Z,4.80
2022-10-22T20:23:53.548Z,5.23
2022-10-22T20:26:23.656Z,11.93
2022-10-22T20:28:51.591Z,7.27
2022-10-22T20:31:21.535Z,4.53
2022-10-22T20:33:50.717Z,6.53
2022-10-22T20:36:20.165Z,7.93
2022-10-22T20:38:49.835Z,6.40
2022-10-22T20:41:19.667Z,8.50
2022-10-22T20:43:48.502Z,7.50
2022-10-22T20:46:19.747Z,5.73
2022-10-22T20:48:47.902Z,4.80
2022-10-22T20:51:15.754Z,3.60
2022-10-22T20:53:43.639Z,4.73
2022-10-22T20:56:13.509Z,6.40
2022-10-22T20:58:47.604Z,5.97
2022-10-22T21:01:21.283Z,3.43
2022-10-22T21:03:49.572Z,2.93
2022-10-22T21:06:17.592Z,4.63
2022-10-22T21:08:45.415Z,5.00
2022-10-22T21:11:14.652Z,5.10
2022-10-22T21:13:42.462Z,4.20
2022-10-22T21:16:11.705Z,4.37
2022-10-22T21:18:39.879Z,3.87
2022-10-22T21:21:09.151Z,4.03
2022-10-22T21:23:37.978Z,5.83
2022-10-22T21:26:06.532Z,4.07
2022-10-22T21:28:36.854Z,10.13
2022-10-22T21:31:06.018Z,5.30
2022-10-22T21:33:36.837Z,3.77
2022-10-22T21:36:05.553Z,5.30
2022-10-22T21:38:34.009Z,7.80
2022-10-22T21:41:05.444Z,2.50
2022-10-22T21:43:33.336Z,3.23
2022-10-22T21:46:08.007Z,3.20
2022-10-22T21:48:36.513Z,2.37
2022-10-22T21:51:08.628Z,3.40
2022-10-22T21:53:36.595Z,2.50
2022-10-22T21:56:05.472Z,4.93
2022-10-22T21:58:35.405Z,4.70
2022-10-22T22:01:05.323Z,4.53
2022-10-22T22:03:33.495Z,3.87
2022-10-22T22:06:02.107Z,3.20
2022-10-22T22:08:30.162Z,10.63
2022-10-22T22:11:02.639Z,5.33
2022-10-22T22:13:30.636Z,4.73
2022-10-22T22:16:01.377Z,4.83
2022-10-22T22:18:30.918Z,5.77
2022-10-22T22:20:59.028Z,2.53
2022-10-22T22:23:27.234Z,2.97
2022-10-22T22:25:59.997Z,2.43
2022-10-22T22:28:28.325Z,4.97
2022-10-22T22:30:56.165Z,3.87
2022-10-22T22:33:24.129Z,3.20
2022-10-22T22:35:53.664Z,4.47
2022-10-22T22:38:21.459Z,3.33
2022-10-22T22:40:49.275Z,2.57
2022-10-22T22:43:17.072Z,5.00
2022-10-22T22:45:44.906Z,3.40
2022-10-22T22:48:12.708Z,4.60
2022-10-22T22:50:40.508Z,8.83
2022-10-22T22:53:09.647Z,3.40
2022-10-22T22:55:37.466Z,5.33
2022-10-22T22:58:05.291Z,7.87
2022-10-22T23:00:33.212Z,3.83
2022-10-22T23:03:01.114Z,4.03
2022-10-22T23:05:28.928Z,2.57
2022-10-22T23:07:57.253Z,2.30
2022-10-22T23:10:26.644Z,5.17
2022-10-22T23:12:54.484Z,1.67
2022-10-22T23:15:22.289Z,6.80
2022-10-22T23:17:50.088Z,6.93
2022-10-22T23:20:18.052Z,4.10
2022-10-22T23:22:45.872Z,3.20
2022-10-22T23:25:13.756Z,1.50
2022-10-22T23:27:43.143Z,6.40
2022-10-22T23:30:12.367Z,2.03
2022-10-22T23:32:40.203Z,3.93
2022-10-22T23:35:08.667Z,7.93
2022-10-22T23:37:36.469Z,4.67
2022-10-22T23:40:04.746Z,3.90
2022-10-22T23:42:32.625Z,1.70
2022-10-22T23:45:01.833Z,4.93
2022-10-22T23:47:29.723Z,2.27
2022-10-22T23:49:57.538Z,6.70
2022-10-22T23:52:25.414Z,3.27
2022-10-22T23:54:53.212Z,3.60
2022-10-22T23:57:21.041Z,5.73
2022-10-22T23:59:48.892Z,3.70
